Latest Coastal Weather Observations for Flinders Island Airport

IDV60701

Issued at 6:01 pm EDT Friday 27 March 2015 (issued every 10 minutes, with the page automatically refreshed every 10 minutes)

About coastal observations | Map of coastal stations | Coastal observations for VIC | Marine services | Other Formats
Station Details ID: 099005 Name: FLINDERS ISLAND AIRPORT Lat: -40.09 Lon: 148.00 Height: 9.0 m
Data from the previous 72 hours. | See also: Recent months at Flinders Island Airport
Date/Time
EDT
Temp

°C
Wind Pressure Rain
since 9am
mm
Weather Cloud Vis
km
Sea
Height
m
Swell
Dir
 
Speed
knots
Gust
knots
hPa Trend Height
m
Period
s
Dir
27/06:00pm 17.3 SW 17 22 1015.1 - 0.8 - Mostly clear 10 - - - -
27/05:30pm 17.4 SW 20 26 1014.8 - 0.8 - Cloudy 10 - - - -
27/05:00pm 17.5 SW 20 27 1014.4 - 0.8 - Partly cloudy 10 - - - -
27/04:30pm 17.3 SW 21 27 1014.1 - 0.8 - - 10 - - - -
27/04:00pm 17.0 SW 22 27 1013.7 - 0.8 - Partly cloudy 10 - - - -
27/03:30pm 16.7 SW 23 29 1013.4 - 0.8 - Partly cloudy 10 - - - -
27/03:00pm 15.7 SW 22 27 1013.1 - 0.8 - Cloudy 10 - - - -
27/02:30pm 15.5 SW 23 30 1012.9 - 0.8 - Partly cloudy 10 - - - -
27/02:00pm 14.8 SW 21 28 1012.9 - 0.8 - Partly cloudy 10 - - - -
27/01:30pm 14.3 SW 23 30 1012.9 - 0.8 - Partly cloudy 10 - - - -
27/01:22pm 14.1 SW 23 33 1012.9 - 0.8 - Partly cloudy 10 - - - -
27/01:00pm 13.3 SW 25 31 1012.9 - 0.8 - Partly cloudy 10 - - - -
27/12:54pm 13.3 SW 24 31 1012.9 - 0.8 - Partly cloudy 10 - - - -
27/12:42pm 12.9 SW 25 33 1013.0 - 0.6 - Partly cloudy 5 - - - -
27/12:32pm 13.7 WSW 23 34 1013.0 - 0.0 - Partly cloudy 7 - - - -
27/12:30pm 13.5 WSW 23 30 1013.0 - 0.0 - Partly cloudy 6 - - - -
27/12:00pm 15.4 WSW 23 29 1013.0 - 0.0 - Cloudy 10 - - - -
27/11:30am 15.8 WSW 21 29 1012.9 - 0.0 - Partly cloudy 10 - - - -
27/11:00am 15.8 WSW 18 22 1012.7 - 0.0 - - 10 - - - -
27/10:30am 15.9 SW 18 22 1012.5 - 0.0 - - 10 - - - -
27/10:00am 15.5 SW 19 23 1012.2 - 0.0 - - 10 - - - -
27/09:30am 15.1 SW 17 24 1011.9 - 0.0 - - 10 - - - -
27/09:00am 14.3 SW 17 22 1011.6 - 12.8 - Mostly cloudy 10 - - - -
27/08:30am 13.9 SW 13 17 1010.9 - 12.8 - Partly cloudy 10 - - - -
27/08:00am 13.6 SW 13 16 1010.6 - 12.8 - Partly cloudy 10 - - - -
27/07:30am 13.0 WSW 12 14 1010.2 - 12.8 - Partly cloudy 10 - - - -
27/07:00am 13.0 W 11 15 1010.2 - 12.8 - Partly cloudy 10 - - - -
27/06:30am 13.1 WNW 14 18 1010.1 - 12.8 - Partly cloudy 10 - - - -
27/06:00am 13.5 WSW 18 22 1009.9 - 12.8 - Cloudy 10 - - - -
27/05:30am 13.4 WSW 19 23 1009.9 - 12.8 - Partly cloudy 10 - - - -
27/05:00am 13.5 WSW 24 30 1009.8 - 12.8 - Partly cloudy 10 - - - -
27/04:30am 13.5 WSW 25 30 1009.7 - 12.8 - Partly cloudy 10 - - - -
27/04:00am 13.2 WSW 26 30 1009.4 - 12.8 - Partly cloudy 10 - - - -
27/03:30am 13.2 WSW 29 33 1009.0 - 12.8 - Partly cloudy 10 - - - -
27/03:00am 12.7 W 28 33 1008.8 - 12.6 Rain Cloudy 7 - - - -
27/02:30am 13.3 WSW 27 33 1008.1 - 12.0 - Partly cloudy 10 - - - -
27/02:00am 13.4 WSW 29 35 1007.6 - 12.0 - Partly cloudy 10 - - - -
27/01:30am 13.7 W 24 30 1007.2 - 12.0 - Partly cloudy 10 - - - -
27/01:00am 13.7 WNW 21 30 1006.8 - 12.0 - Partly cloudy 10 - - - -
27/12:30am 13.3 NW 18 26 1006.8 - 12.0 - Partly cloudy 10 - - - -
27/12:15am 13.2 NNW 15 26 1006.9 - 12.0 - Partly cloudy 10 - - - -
27/12:13am 13.0 NNW 14 22 1006.9 - 12.0 - Partly cloudy 10 - - - -
27/12:00am 12.9 NNW 18 27 1007.0 - 12.0 Rain Cloudy 2 - - - -
 
Date/Time
EDT
Temp

°C
Wind Pressure Rain
since 9am
mm
Weather Cloud Vis
km
Sea
Height
m
Swell
Dir
 
Speed
knots
Gust
knots
hPa Trend Height
m
Period
s
Dir
26/11:42pm 12.2 N 20 31 1007.6 - 8.2 - Partly cloudy 4 - - - -
26/11:30pm 12.9 N 18 28 1007.8 - 6.6 - Partly cloudy 6 - - - -
26/11:05pm 12.7 N 20 30 1008.8 - 6.2 - Partly cloudy 8 - - - -
26/11:00pm 12.6 N 18 27 1009.2 - 6.0 - Partly cloudy 7 - - - -
26/10:57pm 12.4 N 17 30 1009.4 - 6.0 - Partly cloudy 7 - - - -
26/10:49pm 12.3 NNE 17 30 1009.3 - 5.6 - Partly cloudy 6 - - - -
26/10:45pm 12.4 N 15 22 1009.5 - 5.6 - Partly cloudy 5 - - - -
26/10:30pm 12.5 N 15 23 1010.5 - 4.6 - Partly cloudy 10 - - - -
26/10:00pm 12.8 N 15 21 1011.1 - 4.2 - Partly cloudy 10 - - - -
26/09:31pm 12.8 N 15 25 1011.9 - 4.0 - Partly cloudy 10 - - - -
26/09:30pm 12.9 N 16 25 1011.9 - 4.0 - Partly cloudy 10 - - - -
26/09:12pm 12.4 NNW 17 24 1012.6 - 4.0 - Partly cloudy 10 - - - -
26/09:00pm 12.8 NNW 14 25 1012.6 - 4.0 Recent precip. Cloudy 10 - - - -
26/08:36pm 12.0 N 8 14 1012.6 - 4.0 - Partly cloudy 10 - - - -
26/08:30pm 11.7 N 10 17 1012.7 - 4.0 - Partly cloudy 9 - - - -
26/08:25pm 11.9 N 14 24 1012.8 - 3.8 - Partly cloudy 5 - - - -
26/08:10pm 13.2 N 10 25 1012.6 - 2.8 - Partly cloudy 10 - - - -
26/08:00pm 13.9 N 5 7 1012.4 - 2.8 - Partly cloudy 10 - - - -
26/07:30pm 14.1 N 7 10 1012.7 - 2.8 - Partly cloudy 10 - - - -
26/07:00pm 13.9 WNW 13 18 1012.9 - 2.8 - Partly cloudy 10 - - - -
26/06:30pm 14.3 WNW 16 22 1013.2 - 2.8 - Partly cloudy 10 - - - -
26/06:16pm 14.0 NW 10 23 1013.2 - 2.8 - Partly cloudy 10 - - - -
26/06:00pm 13.6 WNW 7 9 1013.2 - 2.8 - Mostly clear 10 - - - -
26/05:30pm 13.8 W 9 13 1013.3 - 2.8 - Partly cloudy 10 - - - -
26/05:00pm 12.3 W 13 17 1013.5 - 2.8 - Partly cloudy 10 - - - -
26/04:30pm 12.3 W 17 25 1013.6 - 2.6 - Partly cloudy 10 - - - -
26/04:00pm 13.3 W 14 23 1013.7 - 2.6 - Partly cloudy 10 - - - -
26/03:45pm 11.4 NW 9 16 1013.8 - 2.6 - Partly cloudy 10 - - - -
26/03:30pm 11.3 NW 11 16 1014.1 - 2.2 - Partly cloudy 4 - - - -
26/03:27pm 11.4 NNW 9 15 1014.2 - 1.6 - Partly cloudy 5 - - - -
26/03:00pm 11.6 NW 11 16 1013.9 - 0.4 Recent precip. Cloudy 10 - - - -
26/02:33pm 11.5 WNW 16 23 1014.2 - 0.0 - Partly cloudy 8 - - - -
26/02:30pm 11.5 WNW 16 23 1014.2 - 0.0 - Partly cloudy 8 - - - -
26/02:20pm 11.5 W 19 29 1014.3 - 0.0 - Partly cloudy 5 - - - -
26/02:15pm 11.2 W 24 32 1014.4 - 0.0 - Partly cloudy 5 - - - -
26/02:04pm 14.4 W 17 35 1013.9 - 0.0 - Partly cloudy 10 - - - -
26/02:00pm 14.3 W 17 21 1013.9 - 0.0 - Partly cloudy 10 - - - -
26/01:32pm 14.0 W 22 33 1013.8 - 0.0 - Partly cloudy 10 - - - -
26/01:30pm 15.0 W 20 27 1013.7 - 0.0 - Partly cloudy 10 - - - -
26/01:00pm 14.5 W 23 30 1014.0 - 0.0 - Partly cloudy 10 - - - -
26/12:30pm 14.6 WNW 18 23 1014.0 - 0.0 - Partly cloudy 10 - - - -
26/12:00pm 14.9 WNW 19 27 1014.2 - 0.0 - Cloudy 10 - - - -
26/11:30am 15.0 WNW 19 26 1013.9 - 0.0 - Partly cloudy 10 - - - -
26/11:20am 14.8 WNW 18 28 1013.9 - 0.0 - Partly cloudy 10 - - - -
26/11:00am 15.1 WNW 19 27 1013.7 - 0.0 - Partly cloudy 10 - - - -
26/10:30am 14.3 WNW 17 22 1013.7 - 0.0 - Partly cloudy 10 - - - -
26/10:06am 15.5 WNW 17 27 1013.5 - 0.0 - Partly cloudy 10 - - - -
26/10:00am 14.9 WNW 18 25 1013.6 - 0.0 - Partly cloudy 10 - - - -
26/09:30am 15.0 WNW 17 24 1013.5 - 0.0 - Partly cloudy 10 - - - -
26/09:00am 14.8 W 14 17 1013.3 - 3.0 - Mostly cloudy 10 - - - -
26/08:30am 14.4 W 16 20 1013.3 - 3.0 - Partly cloudy 10 - - - -
26/08:00am 14.2 W 19 24 1013.3 - 3.0 - Partly cloudy 10 - - - -
26/07:43am 14.5 W 19 23 1013.0 - 3.0 - Partly cloudy 10 - - - -
26/07:30am 14.6 W 17 22 1012.9 - 3.0 - Partly cloudy 10 - - - -
26/07:04am 14.5 W 20 24 1012.5 - 3.0 - Partly cloudy 10 - - - -
26/07:00am 14.5 WSW 21 26 1012.5 - 3.0 - Partly cloudy 10 - - - -
26/06:30am 14.7 W 22 32 1011.9 - 3.0 - - 10 - - - -
26/06:28am 14.8 W 22 32 1011.9 - 3.0 - - 10 - - - -
26/06:20am 15.4 WNW 18 30 1011.7 - 3.0 - - 10 - - - -
26/06:18am 15.5 WNW 17 30 1011.7 - 3.0 - Partly cloudy 10 - - - -
26/06:00am 15.9 NW 13 17 1011.4 - 3.0 Recent precip. - 10 - - - -
26/05:30am 16.3 NNW 9 14 1011.3 - 2.8 - Partly cloudy 10 - - - -
26/05:09am 16.6 NNW 12 17 1011.3 - 2.8 - Partly cloudy 10 - - - -
26/05:08am 16.6 NNW 12 17 1011.3 - 2.8 - Partly cloudy 10 - - - -
26/05:00am 16.8 N 10 16 1011.2 - 2.8 - Partly cloudy 8 - - - -
26/04:50am 16.8 N 16 28 1011.4 - 2.6 - Partly cloudy 2 - - - -
26/04:49am 17.2 N 17 28 1011.5 - 2.2 - Partly cloudy 3 - - - -
26/04:48am 17.5 N 16 28 1011.6 - 1.2 - Partly cloudy 5 - - - -
26/04:46am 18.3 NNE 16 26 1011.4 - 0.0 - Partly cloudy 10 - - - -
26/04:30am 18.1 NNE 20 27 1010.7 - 0.0 - Partly cloudy 10 - - - -
26/04:00am 17.9 NE 21 29 1011.2 - 0.0 - Partly cloudy 10 - - - -
26/03:37am 17.6 NNE 19 30 1011.6 - 0.0 - Partly cloudy 10 - - - -
26/03:30am 17.7 NNE 18 24 1011.7 - 0.0 - Partly cloudy 10 - - - -
26/03:00am 17.3 NNE 18 25 1012.2 - 0.0 - Mostly cloudy 10 - - - -
26/02:30am 16.5 NE 14 19 1012.4 - 0.0 - Partly cloudy 10 - - - -
26/02:00am 15.8 NE 12 16 1013.0 - 0.0 - Partly cloudy 10 - - - -
26/01:30am 15.2 E 4 7 1013.4 - 0.0 - Partly cloudy 10 - - - -
26/01:00am 14.4 E 5 8 1013.9 - 0.0 - Partly cloudy 10 - - - -
26/12:30am 14.4 ESE 5 6 1014.3 - 0.0 - Partly cloudy 10 - - - -
26/12:00am 13.7 ESE 7 8 1014.7 - 0.0 - Cloudy 10 - - - -
 
Date/Time
EDT
Temp

°C
Wind Pressure Rain
since 9am
mm
Weather Cloud Vis
km
Sea
Height
m
Swell
Dir
 
Speed
knots
Gust
knots
hPa Trend Height
m
Period
s
Dir
25/11:30pm 11.6 ENE 6 8 1015.3 - 0.0 - Cloudy 10 - - - -
25/11:00pm 10.9 ENE 7 8 1015.4 - 0.0 - Partly cloudy 10 - - - -
25/10:30pm 12.3 NE 7 8 1015.5 - 0.0 - Partly cloudy 10 - - - -
25/10:00pm 9.5 NE 5 6 1015.6 - 0.0 - - 10 - - - -
25/09:30pm 9.7 ENE 7 8 1015.6 - 0.0 - - 10 - - - -
25/09:00pm 9.3 ENE 6 7 1015.8 - 0.0 - Mostly clear 10 - - - -
25/08:30pm 11.1 NE 7 8 1015.6 - 0.0 - - 10 - - - -
25/08:00pm 12.3 ENE 4 7 1015.6 - 0.0 - - 10 - - - -
25/07:30pm 14.0 WNW 4 5 1015.4 - 0.0 - - 10 - - - -
25/07:00pm 15.3 WNW 4 5 1015.1 - 0.0 - Partly cloudy 10 - - - -
25/06:30pm 15.8 WNW 4 5 1015.1 - 0.0 - Partly cloudy 10 - - - -
25/06:00pm 16.1 WNW 5 7 1014.8 - 0.0 - Cloudy 10 - - - -
25/05:30pm 16.2 WNW 7 9 1015.1 - 0.0 - Cloudy 10 - - - -
25/05:00pm 16.4 W 7 8 1014.9 - 0.0 - Cloudy 10 - - - -
25/04:30pm 16.7 WNW 6 9 1014.6 - 0.0 - Partly cloudy 10 - - - -
25/04:00pm 16.8 W 7 9 1014.8 - 0.0 - Partly cloudy 10 - - - -
25/03:30pm 16.9 W 9 12 1015.3 - 0.0 - Cloudy 10 - - - -
25/03:00pm 17.0 WSW 7 10 1015.5 - 0.0 - Mostly cloudy 10 - - - -
25/02:30pm 17.0 W 8 12 1015.9 - 0.0 - - 10 - - - -
25/02:00pm 17.6 WNW 8 11 1016.2 - 0.0 - - 10 - - - -
25/01:30pm 17.7 WSW 7 9 1016.4 - 0.0 - Partly cloudy 10 - - - -
25/01:00pm 16.9 WSW 9 11 1017.0 - 0.0 - - 10 - - - -
25/12:30pm 17.0 WSW 10 14 1017.2 - 0.0 - - 10 - - - -
25/12:00pm 16.6 WSW 9 11 1017.3 - 0.0 - Mostly clear 10 - - - -
25/11:30am 17.2 WSW 12 16 1017.5 - 0.0 - Partly cloudy 10 - - - -
25/11:00am 16.1 W 11 15 1017.8 - 0.0 - Partly cloudy 10 - - - -
25/10:30am 15.7 W 10 13 1017.9 - 0.0 - Partly cloudy 10 - - - -
25/10:00am 15.2 WSW 11 15 1017.7 - 0.0 - Cloudy 10 - - - -
25/09:30am 15.1 WSW 12 17 1017.5 - 0.0 - Partly cloudy 10 - - - -
25/09:00am 15.1 WSW 14 17 1017.4 - 0.0 - Cloudy 10 - - - -
25/08:30am 14.7 WSW 14 18 1017.2 - 0.0 - Cloudy 10 - - - -
25/08:00am 14.5 WSW 17 20 1017.2 - 0.0 - Cloudy 10 - - - -
25/07:30am 14.3 WSW 13 18 1016.8 - 0.0 - Cloudy 10 - - - -
25/07:00am 14.3 W 15 20 1016.8 - 0.0 - Cloudy 10 - - - -
25/06:30am 14.2 W 18 21 1016.8 - 0.0 - Cloudy 10 - - - -
25/06:00am 14.2 W 16 19 1016.5 - 0.0 - Cloudy 10 - - - -
25/05:30am 14.0 WSW 18 22 1016.4 - 0.0 - Cloudy 10 - - - -
25/05:00am 13.9 W 13 17 1016.4 - 0.0 - Cloudy 10 - - - -
25/04:30am 13.9 WSW 15 19 1016.3 - 0.0 - Cloudy 10 - - - -
25/04:00am 13.9 W 17 20 1016.4 - 0.0 - Cloudy 10 - - - -
25/03:30am 14.0 W 14 18 1016.4 - 0.0 - Cloudy 10 - - - -
25/03:00am 13.9 W 17 20 1016.6 - 0.0 - Mostly cloudy 10 - - - -
25/02:30am 13.3 W 13 16 1016.7 - 0.0 - Partly cloudy 10 - - - -
25/02:00am 9.6 N 4 5 1016.8 - 0.0 - Partly cloudy 10 - - - -
25/01:30am 9.7 NE 6 7 1016.8 - 0.0 - Partly cloudy 10 - - - -
25/01:00am 9.2 NE 7 8 1016.8 - 0.0 - - 10 - - - -
25/12:30am 11.0 NNE 5 7 1017.1 - 0.0 - - 10 - - - -
25/12:00am 11.5 NE 5 7 1017.2 - 0.0 - Cloudy 10 - - - -
 
Date/Time
EDT
Temp

°C
Wind Pressure Rain
since 9am
mm
Weather Cloud Vis
km
Sea
Height
m
Swell
Dir
 
Speed
knots
Gust
knots
hPa Trend Height
m
Period
s
Dir
24/11:30pm 12.7 NE 1 4 1017.6 - 0.0 - Partly cloudy 10 - - - -
24/11:00pm 12.3 NE 5 6 1017.9 - 0.0 - Partly cloudy 10 - - - -
24/10:30pm 11.6 NE 5 6 1017.9 - 0.0 - Partly cloudy 10 - - - -
24/10:00pm 13.7 CALM 0 0 1018.0 - 0.0 - Partly cloudy 10 - - - -
24/09:30pm 13.7 ESE 3 4 1018.0 - 0.0 - Partly cloudy 10 - - - -
24/09:00pm 14.1 CALM 0 3 1017.7 - 0.0 - Cloudy 10 - - - -
24/08:30pm 14.2 ESE 1 3 1017.5 - 0.0 - Cloudy 10 - - - -
24/08:00pm 14.3 ESE 3 5 1017.2 - 0.0 - Partly cloudy 10 - - - -
24/07:30pm 14.5 ESE 3 5 1016.9 - 0.0 - Cloudy 10 - - - -
24/07:00pm 15.0 ESE 5 7 1016.5 - 0.0 - Cloudy 10 - - - -
24/06:30pm 15.2 ESE 6 8 1016.3 - 0.0 - Partly cloudy 10 - - - -

Other Formats:

Comma delimited format used in spreadsheet applications
http://www.bom.gov.au/fwo/IDV60701/IDV60701.94980.axf

JavaScript Object Notation format (JSON) in row-major order
http://www.bom.gov.au/fwo/IDV60701/IDV60701.94980.json